Time;durP1;ratioP1;P1;durP2;ratioP2;P2;SDS_P1;SDS_P2;PMS_P1;PMS_P2;Temp;Humidity;BMP_temperature;BMP_pressure;BME280_temperature;BME280_humidity;BME280_pressure;Samples;Min_cycle;Max_cycle;Signal;HPM_P1;HPM_P2
2024/03/21 00:01:12;;;;;;;7.00;4.50;;;11.50;99.90;;;;;;5075378;28;20216;-72
2024/03/21 00:03:38;;;;;;;5.20;4.70;;;11.50;99.90;;;;;;5064312;28;20633;-72
2024/03/21 00:06:05;;;;;;;6.20;5.03;;;11.60;99.90;;;;;;5075788;28;20580;-72
2024/03/21 00:08:31;;;;;;;7.07;5.00;;;11.60;99.90;;;;;;5075349;28;20424;-72
2024/03/21 00:10:56;;;;;;;6.30;4.77;;;11.60;99.90;;;;;;5075219;28;20425;-72
2024/03/21 00:13:22;;;;;;;5.00;4.60;;;11.60;99.90;;;;;;5075217;28;20411;-71
2024/03/21 00:15:47;;;;;;;6.03;4.73;;;11.60;99.90;;;;;;5075210;28;20248;-71
2024/03/21 00:18:14;;;;;;;5.60;4.47;;;11.50;99.90;;;;;;5075153;28;20217;-72
2024/03/21 00:20:40;;;;;;;6.10;4.97;;;11.40;99.90;;;;;;5074837;28;20186;-71
2024/03/21 00:23:05;;;;;;;6.90;5.37;;;11.50;99.90;;;;;;5075160;28;20972;-73
2024/03/21 00:25:31;;;;;;;6.60;4.83;;;11.40;99.90;;;;;;5075063;28;20163;-72
2024/03/21 00:27:56;;;;;;;6.20;4.73;;;11.40;99.90;;;;;;5075295;28;20168;-72
2024/03/21 00:30:22;;;;;;;5.90;5.33;;;11.30;99.90;;;;;;5074734;28;20188;-72
2024/03/21 00:32:48;;;;;;;5.37;4.87;;;11.40;99.90;;;;;;5059680;28;20167;-72
2024/03/21 00:35:13;;;;;;;7.70;4.50;;;11.30;99.90;;;;;;5054950;28;20185;-72
2024/03/21 00:37:39;;;;;;;5.37;4.60;;;11.30;99.90;;;;;;5055127;28;20175;-72
2024/03/21 00:40:05;;;;;;;5.70;5.20;;;11.40;99.90;;;;;;5054583;28;20673;-71
2024/03/21 00:42:30;;;;;;;5.77;5.17;;;11.50;99.90;;;;;;5066696;28;20217;-74
2024/03/21 00:44:56;;;;;;;5.67;4.60;;;11.60;99.90;;;;;;5074593;28;20500;-72
2024/03/21 00:47:22;;;;;;;5.67;4.70;;;11.70;99.90;;;;;;5074779;28;20182;-72
2024/03/21 00:49:47;;;;;;;4.40;4.00;;;11.60;99.90;;;;;;5074303;28;20162;-74
2024/03/21 00:52:13;;;;;;;6.73;5.30;;;11.60;99.90;;;;;;5064802;28;20403;-72
2024/03/21 00:54:38;;;;;;;4.50;4.10;;;11.50;99.90;;;;;;5054578;28;20170;-71
2024/03/21 00:57:04;;;;;;;5.10;4.60;;;11.40;99.90;;;;;;5054870;28;20180;-72
2024/03/21 00:59:30;;;;;;;9.87;5.27;;;11.30;99.90;;;;;;5054417;28;20713;-71
2024/03/21 01:01:55;;;;;;;5.80;4.37;;;11.30;99.90;;;;;;5061531;28;20691;-72
2024/03/21 01:04:21;;;;;;;6.17;4.43;;;11.30;99.90;;;;;;5074268;28;20227;-72
2024/03/21 01:06:47;;;;;;;5.13;3.93;;;11.20;99.90;;;;;;5074287;28;20173;-72
2024/03/21 01:09:12;;;;;;;4.37;3.97;;;11.20;99.90;;;;;;5074057;28;20173;-72
2024/03/21 01:11:40;;;;;;;6.77;4.53;;;11.30;99.90;;;;;;5074156;28;20218;-73
2024/03/21 01:14:05;;;;;;;5.70;4.17;;;11.20;99.90;;;;;;5074170;28;20201;-72
2024/03/21 01:16:32;;;;;;;4.77;3.90;;;11.30;99.90;;;;;;5074311;28;20412;-72
2024/03/21 01:18:57;;;;;;;3.40;3.10;;;11.30;99.90;;;;;;5074147;28;20168;-72
2024/03/21 01:21:23;;;;;;;4.10;3.70;;;11.30;99.90;;;;;;5073973;28;20485;-72
2024/03/21 01:23:48;;;;;;;3.97;3.67;;;11.40;99.90;;;;;;5074111;28;20530;-72
2024/03/21 01:26:14;;;;;;;7.73;4.13;;;11.40;99.90;;;;;;5073772;28;20215;-72
2024/03/21 01:28:40;;;;;;;5.73;3.50;;;11.40;99.90;;;;;;5074100;28;20186;-71
2024/03/21 01:31:23;;;;;;;4.93;3.77;;;11.50;99.90;;;;;;5073688;28;20194;-72
2024/03/21 01:33:49;;;;;;;5.10;3.50;;;11.40;99.90;;;;;;5074264;28;20288;-72
2024/03/21 01:36:15;;;;;;;6.23;3.40;;;11.40;99.90;;;;;;5074555;28;20921;-72
2024/03/21 01:38:41;;;;;;;7.40;3.80;;;11.30;99.90;;;;;;5074098;28;20414;-73
2024/03/21 01:41:06;;;;;;;4.53;4.10;;;11.30;99.90;;;;;;5073624;28;20195;-73
2024/03/21 01:43:34;;;;;;;4.60;3.63;;;11.30;99.90;;;;;;5053939;28;20175;-72
2024/03/21 01:46:21;;;;;;;6.20;4.03;;;11.40;99.90;;;;;;5053911;28;20178;-73
2024/03/21 01:48:48;;;;;;;6.63;3.90;;;11.30;99.90;;;;;;5053705;28;20408;-72
2024/03/21 01:51:17;;;;;;;3.83;3.43;;;11.30;99.90;;;;;;5059695;28;20459;-73
2024/03/21 01:53:44;;;;;;;3.83;3.30;;;11.40;99.90;;;;;;5073616;28;20913;-73
2024/03/21 01:56:10;;;;;;;3.90;3.30;;;11.40;99.90;;;;;;5074153;28;20898;-72
2024/03/21 01:58:35;;;;;;;3.43;3.13;;;11.20;99.90;;;;;;5074951;28;20423;-73
2024/03/21 02:01:24;;;;;;;4.77;4.00;;;11.20;99.90;;;;;;5073976;28;20202;-72
2024/03/21 02:03:54;;;;;;;3.60;3.10;;;11.30;99.90;;;;;;5066794;28;20197;-73
2024/03/21 02:06:24;;;;;;;3.47;3.17;;;11.30;99.90;;;;;;5073107;28;20407;-74
2024/03/21 02:08:53;;;;;;;5.87;3.57;;;11.40;99.90;;;;;;5073227;28;20408;-72
2024/03/21 02:11:19;;;;;;;3.70;3.00;;;11.40;99.90;;;;;;5073427;28;20500;-72
2024/03/21 02:13:46;;;;;;;3.70;3.30;;;11.40;99.90;;;;;;5073115;28;20412;-73
2024/03/21 02:16:12;;;;;;;5.13;3.10;;;11.50;99.90;;;;;;5073209;28;20929;-72
2024/03/21 02:18:38;;;;;;;4.30;3.70;;;11.50;99.90;;;;;;5073040;28;20509;-71
2024/03/21 02:21:06;;;;;;;3.73;3.17;;;11.40;99.90;;;;;;5072957;28;20537;-73
2024/03/21 02:23:32;;;;;;;10.63;3.50;;;11.50;99.90;;;;;;5073234;28;20178;-73
2024/03/21 02:25:59;;;;;;;3.80;3.00;;;11.40;99.90;;;;;;5073336;28;20414;-72
2024/03/21 02:28:25;;;;;;;4.13;3.53;;;11.50;99.90;;;;;;5072933;28;20396;-72
2024/03/21 02:30:52;;;;;;;3.00;2.57;;;11.30;99.90;;;;;;5071577;28;20436;-72
2024/03/21 02:33:19;;;;;;;3.77;3.27;;;11.40;99.90;;;;;;5072921;28;20416;-71
2024/03/21 02:35:44;;;;;;;4.10;3.30;;;11.60;99.90;;;;;;5073217;28;20418;-72
2024/03/21 02:38:10;;;;;;;6.40;3.20;;;11.50;99.90;;;;;;5072895;28;20409;-72
2024/03/21 02:40:35;;;;;;;6.33;3.57;;;11.60;99.90;;;;;;5072626;28;20341;-72
2024/03/21 02:43:01;;;;;;;5.30;4.00;;;11.70;99.90;;;;;;5072731;28;20178;-72
2024/03/21 02:45:26;;;;;;;3.60;3.30;;;11.70;99.90;;;;;;5072767;28;20177;-73
2024/03/21 02:47:52;;;;;;;4.40;3.00;;;11.80;99.90;;;;;;5072773;28;20177;-72
2024/03/21 02:50:17;;;;;;;5.77;2.97;;;11.90;99.90;;;;;;5072958;28;20347;-72
2024/03/21 02:52:43;;;;;;;3.37;3.07;;;12.00;99.90;;;;;;5072730;28;20197;-72
2024/03/21 02:55:09;;;;;;;3.80;3.23;;;12.00;99.90;;;;;;5073615;28;20536;-72
2024/03/21 02:57:34;;;;;;;5.10;3.30;;;12.10;99.90;;;;;;5072930;28;20505;-71
2024/03/21 03:00:00;;;;;;;4.00;3.60;;;12.20;99.90;;;;;;5072478;28;20196;-72
2024/03/21 03:02:26;;;;;;;3.80;3.20;;;12.20;99.90;;;;;;5073102;28;20172;-73
2024/03/21 03:04:51;;;;;;;3.70;3.40;;;12.30;99.90;;;;;;5075149;28;20543;-73
2024/03/21 03:07:17;;;;;;;4.80;3.20;;;12.30;99.90;;;;;;5077081;28;20636;-74
2024/03/21 03:09:42;;;;;;;3.70;3.30;;;12.30;99.90;;;;;;5076788;28;20183;-72
2024/03/21 03:12:08;;;;;;;4.27;3.40;;;12.40;99.90;;;;;;5069486;28;20171;-72
2024/03/21 03:14:34;;;;;;;3.63;3.30;;;12.40;99.90;;;;;;5056461;28;20180;-72
2024/03/21 03:16:59;;;;;;;5.47;2.90;;;12.50;99.90;;;;;;5056702;28;20177;-72
2024/03/21 03:19:25;;;;;;;2.93;2.60;;;12.50;99.90;;;;;;5056634;28;20177;-73
2024/03/21 03:21:50;;;;;;;3.57;3.27;;;12.50;99.90;;;;;;5060787;28;20543;-73
2024/03/21 03:24:16;;;;;;;3.53;3.23;;;12.50;99.90;;;;;;5076389;28;20639;-73
2024/03/21 03:26:41;;;;;;;4.53;3.50;;;12.50;99.90;;;;;;5076244;28;20221;-73
2024/03/21 03:29:07;;;;;;;4.27;3.50;;;12.50;99.90;;;;;;5076423;28;20179;-73
2024/03/21 03:31:32;;;;;;;4.37;3.90;;;12.40;99.90;;;;;;5074213;28;20199;-73
2024/03/21 03:36:43;;;;;;;3.80;3.30;;;12.60;99.90;;;;;;5079881;22;20408;-71
2024/03/21 03:39:09;;;;;;;5.60;3.67;;;12.70;99.90;;;;;;5038250;28;20410;-72
2024/03/21 03:41:34;;;;;;;4.20;3.80;;;12.90;99.90;;;;;;5056414;28;20458;-72
2024/03/21 03:44:00;;;;;;;5.17;4.10;;;12.80;99.90;;;;;;5071416;28;20176;-72
2024/03/21 03:46:26;;;;;;;5.47;3.80;;;12.90;99.90;;;;;;5056134;28;20192;-72
2024/03/21 03:48:51;;;;;;;4.70;3.60;;;12.80;99.90;;;;;;5056133;28;20204;-72
2024/03/21 03:51:17;;;;;;;6.90;4.20;;;12.90;99.90;;;;;;5054609;28;20174;-72
2024/03/21 03:53:43;;;;;;;5.40;3.67;;;12.90;99.90;;;;;;5055803;28;20170;-72
2024/03/21 03:56:08;;;;;;;3.50;3.20;;;13.00;99.90;;;;;;5046781;28;20191;-72
2024/03/21 03:58:34;;;;;;;4.10;3.60;;;13.00;99.90;;;;;;5035810;28;20772;-73
2024/03/21 04:01:01;;;;;;;4.20;3.13;;;13.00;99.90;;;;;;5050822;28;20198;-72
2024/03/21 04:03:27;;;;;;;5.90;3.70;;;12.90;99.90;;;;;;5055727;28;20166;-73
2024/03/21 04:06:01;;;;;;;4.13;3.47;;;12.80;99.90;;;;;;5055567;28;20428;-72
2024/03/21 04:08:27;;;;;;;5.13;3.43;;;12.60;99.90;;;;;;5054439;28;20415;-72
2024/03/21 04:10:55;;;;;;;4.87;3.47;;;12.50;99.90;;;;;;5055560;28;20403;-72
2024/03/21 04:13:20;;;;;;;4.53;3.70;;;12.40;99.90;;;;;;5055568;28;20434;-72
2024/03/21 04:15:51;;;;;;;4.00;3.60;;;12.50;99.90;;;;;;5054643;28;20497;-73
2024/03/21 04:18:17;;;;;;;6.10;3.40;;;12.50;99.90;;;;;;5055670;28;20235;-72
2024/03/21 04:20:43;;;;;;;3.73;3.20;;;12.40;99.90;;;;;;5055340;28;20444;-73
2024/03/21 04:23:08;;;;;;;3.50;3.20;;;12.50;99.90;;;;;;5055371;28;20467;-72
2024/03/21 04:25:34;;;;;;;3.50;3.20;;;12.60;99.90;;;;;;5053246;28;20204;-72
2024/03/21 04:27:59;;;;;;;4.33;3.93;;;12.70;99.90;;;;;;5055295;28;20167;-72
2024/03/21 04:30:25;;;;;;;3.50;3.00;;;12.60;99.90;;;;;;5053723;28;20180;-72
2024/03/21 04:32:50;;;;;;;5.40;3.83;;;12.60;99.90;;;;;;5053646;28;20179;-72
2024/03/21 04:35:16;;;;;;;4.13;3.27;;;12.60;99.90;;;;;;5054819;28;20650;-71
2024/03/21 04:37:42;;;;;;;6.47;3.90;;;12.60;99.90;;;;;;5053670;28;20298;-72
2024/03/21 04:40:08;;;;;;;3.70;3.40;;;12.60;99.90;;;;;;5054856;28;20181;-72
2024/03/21 04:42:33;;;;;;;3.53;3.00;;;12.50;99.90;;;;;;5045792;28;20181;-71
2024/03/21 04:44:59;;;;;;;4.07;3.33;;;12.50;99.90;;;;;;5034892;28;20429;-71
2024/03/21 04:47:24;;;;;;;4.67;3.10;;;12.40;99.90;;;;;;5035180;28;20688;-72
2024/03/21 04:49:54;;;;;;;3.60;3.30;;;12.30;99.90;;;;;;5034952;28;20170;-72
2024/03/21 04:52:20;;;;;;;3.27;2.97;;;12.20;99.90;;;;;;5042098;28;20172;-71
2024/03/21 04:54:50;;;;;;;3.40;3.10;;;12.30;99.90;;;;;;5055196;28;20430;-71
2024/03/21 04:57:16;;;;;;;5.23;3.57;;;12.30;99.90;;;;;;5054503;28;20925;-72
2024/03/21 04:59:41;;;;;;;3.30;3.00;;;12.30;99.90;;;;;;5054798;28;20418;-70
2024/03/21 05:02:07;;;;;;;4.63;3.17;;;12.30;99.90;;;;;;5035007;28;20591;-72
2024/03/21 05:04:32;;;;;;;3.10;2.80;;;12.30;99.90;;;;;;5034900;28;20583;-72
2024/03/21 05:06:58;;;;;;;3.70;2.93;;;12.40;99.90;;;;;;5034328;28;20679;-72
2024/03/21 05:09:23;;;;;;;5.47;3.00;;;12.50;99.90;;;;;;5034432;28;20650;-73
2024/03/21 05:11:50;;;;;;;3.07;2.77;;;12.50;99.90;;;;;;5052469;28;20291;-71
2024/03/21 05:14:16;;;;;;;2.87;2.60;;;12.60;99.90;;;;;;5054623;28;20484;-73
2024/03/21 05:16:43;;;;;;;3.73;3.13;;;12.50;99.90;;;;;;5054227;28;20195;-72
2024/03/21 05:19:09;;;;;;;2.67;2.47;;;12.40;99.90;;;;;;5055095;28;20205;-72
2024/03/21 05:21:34;;;;;;;3.20;2.83;;;12.40;99.90;;;;;;5049625;28;20460;-73
2024/03/21 05:24:00;;;;;;;3.20;2.90;;;12.40;99.90;;;;;;5054655;28;20172;-73
2024/03/21 05:26:25;;;;;;;3.10;2.60;;;12.50;99.90;;;;;;5054266;28;20199;-72
2024/03/21 05:28:51;;;;;;;3.23;2.90;;;12.50;99.90;;;;;;5054391;28;20255;-72
2024/03/21 05:31:20;;;;;;;6.70;3.50;;;12.50;99.90;;;;;;5054193;28;20175;-71
2024/03/21 05:33:46;;;;;;;3.40;2.87;;;12.50;99.90;;;;;;5053970;28;20172;-72
2024/03/21 05:36:11;;;;;;;4.27;3.00;;;12.50;99.90;;;;;;5053670;28;20452;-73
2024/03/21 05:38:37;;;;;;;4.73;3.10;;;12.50;99.90;;;;;;5052368;28;20183;-72
2024/03/21 05:41:02;;;;;;;3.40;3.03;;;12.50;99.90;;;;;;5047754;28;20784;-73
2024/03/21 05:43:28;;;;;;;3.50;2.90;;;12.50;99.90;;;;;;5033924;28;20171;-72
2024/03/21 05:45:53;;;;;;;3.40;2.60;;;12.50;99.90;;;;;;5034227;28;20195;-73
2024/03/21 05:48:19;;;;;;;3.03;2.60;;;12.50;99.90;;;;;;5035106;28;20168;-72
2024/03/21 05:50:44;;;;;;;2.93;2.63;;;12.50;99.90;;;;;;5037377;28;20255;-73
2024/03/21 05:53:10;;;;;;;3.50;3.20;;;12.50;99.90;;;;;;5054117;28;20167;-72
2024/03/21 05:55:35;;;;;;;4.00;2.90;;;12.50;99.90;;;;;;5053733;28;20256;-72
2024/03/21 05:58:01;;;;;;;2.97;2.77;;;12.60;99.90;;;;;;5053365;28;20182;-72
2024/03/21 06:00:26;;;;;;;3.70;2.83;;;12.70;99.90;;;;;;5053315;28;20202;-72
2024/03/21 06:02:52;;;;;;;4.23;2.77;;;12.80;99.90;;;;;;5052800;28;20190;-73
2024/03/21 06:05:18;;;;;;;2.77;2.57;;;12.80;99.90;;;;;;5053676;28;20681;-72
2024/03/21 06:07:43;;;;;;;3.80;3.17;;;12.80;99.90;;;;;;5053234;28;20229;-73
2024/03/21 06:10:09;;;;;;;3.67;2.90;;;12.80;99.90;;;;;;5053611;28;20409;-73
2024/03/21 06:12:34;;;;;;;5.93;3.20;;;12.90;99.90;;;;;;5053204;28;20172;-72
2024/03/21 06:15:00;;;;;;;3.03;2.73;;;13.00;99.90;;;;;;5053342;28;20157;-72
2024/03/21 06:17:26;;;;;;;5.67;2.87;;;13.10;99.90;;;;;;5053239;28;20190;-72
2024/03/21 06:19:52;;;;;;;3.50;3.03;;;13.10;99.90;;;;;;5053173;28;20178;-73
2024/03/21 06:22:18;;;;;;;4.97;3.30;;;13.20;99.90;;;;;;5048841;28;20195;-73
2024/03/21 06:24:43;;;;;;;3.80;3.40;;;13.30;99.90;;;;;;5033427;28;20420;-72
2024/03/21 06:27:09;;;;;;;4.37;3.10;;;13.40;99.90;;;;;;5033360;28;20657;-72
2024/03/21 06:29:35;;;;;;;3.97;3.60;;;13.50;99.90;;;;;;5033327;28;20792;-72
2024/03/21 06:32:00;;;;;;;6.60;4.77;;;13.60;99.90;;;;;;5033580;28;20248;-72
2024/03/21 06:34:26;;;;;;;6.87;6.03;;;13.50;99.90;;;;;;5048069;28;20551;-73
2024/03/21 06:36:52;;;;;;;8.37;6.53;;;13.40;99.90;;;;;;5051936;28;20194;-72
2024/03/21 06:39:19;;;;;;;7.87;6.50;;;13.00;99.90;;;;;;5055818;28;20181;-73
2024/03/21 06:41:45;;;;;;;7.57;6.40;;;13.00;99.90;;;;;;5060248;28;20603;-72
2024/03/21 06:44:10;;;;;;;8.33;6.50;;;13.10;99.90;;;;;;5059762;28;20467;-73
2024/03/21 06:46:38;;;;;;;9.57;6.23;;;13.40;99.90;;;;;;5060699;28;20203;-73
2024/03/21 06:49:07;;;;;;;8.40;6.37;;;13.60;99.90;;;;;;5061248;28;20551;-73
2024/03/21 06:51:33;;;;;;;10.80;7.60;;;13.60;99.90;;;;;;5061190;28;20413;-73
2024/03/21 06:53:58;;;;;;;9.43;6.70;;;13.80;99.90;;;;;;5060793;28;20478;-72
2024/03/21 06:56:25;;;;;;;9.03;7.30;;;13.90;99.90;;;;;;5060775;28;20224;-73
2024/03/21 06:58:51;;;;;;;12.60;6.60;;;13.90;99.90;;;;;;5063855;28;20166;-73
2024/03/21 07:01:18;;;;;;;8.37;5.77;;;14.10;99.90;;;;;;5079256;28;20462;-72
2024/03/21 07:03:44;;;;;;;10.37;5.77;;;14.20;99.90;;;;;;5072644;28;20181;-72
2024/03/21 07:06:09;;;;;;;9.27;6.47;;;14.30;99.90;;;;;;5060735;28;20538;-72
2024/03/21 07:08:35;;;;;;;5.73;5.10;;;14.40;99.90;;;;;;5061373;28;20441;-72
2024/03/21 07:11:00;;;;;;;8.83;5.60;;;14.50;99.90;;;;;;5059537;28;20204;-73
2024/03/21 07:13:26;;;;;;;9.67;7.13;;;14.60;99.90;;;;;;5067311;28;20155;-73
2024/03/21 07:15:52;;;;;;;9.20;6.83;;;14.70;99.90;;;;;;5080108;28;20194;-73
2024/03/21 07:18:17;;;;;;;6.20;5.60;;;14.70;99.90;;;;;;5073673;28;20208;-73
2024/03/21 07:20:43;;;;;;;7.87;5.97;;;14.80;99.90;;;;;;5073550;28;20240;-72
2024/03/21 07:23:09;;;;;;;6.97;5.33;;;14.60;99.90;;;;;;5068265;28;20167;-72
2024/03/21 07:25:36;;;;;;;8.80;6.83;;;14.50;99.90;;;;;;5052237;28;20209;-73
2024/03/21 07:28:02;;;;;;;6.10;5.40;;;14.50;99.90;;;;;;5053268;28;20406;-72
2024/03/21 07:30:28;;;;;;;8.20;6.37;;;14.40;99.90;;;;;;5037756;28;20431;-72
2024/03/21 07:32:54;;;;;;;10.00;6.50;;;14.50;99.90;;;;;;5040630;28;20413;-73
2024/03/21 07:35:19;;;;;;;7.67;5.80;;;14.80;99.90;;;;;;5059258;28;20174;-74
2024/03/21 07:37:45;;;;;;;9.40;5.93;;;14.90;99.90;;;;;;5056272;28;20216;-74
2024/03/21 07:40:10;;;;;;;11.20;7.60;;;14.80;99.90;;;;;;5060428;28;20171;-73
2024/03/21 07:42:36;;;;;;;11.47;8.30;;;15.00;99.90;;;;;;5059078;28;20166;-76
2024/03/21 07:45:03;;;;;;;9.30;8.30;;;15.00;99.90;;;;;;5038448;28;20233;-75
2024/03/21 07:47:29;;;;;;;13.93;7.60;;;15.10;99.90;;;;;;5039147;28;20236;-74
2024/03/21 07:49:55;;;;;;;8.83;7.70;;;15.30;99.90;;;;;;5038700;28;20416;-72
2024/03/21 07:52:21;;;;;;;11.43;7.63;;;15.50;99.90;;;;;;5036200;28;20167;-72
2024/03/21 07:54:46;;;;;;;14.50;7.73;;;15.30;99.90;;;;;;5051905;28;20174;-72
2024/03/21 07:57:12;;;;;;;11.80;9.00;;;15.00;99.90;;;;;;5055438;28;20433;-72
2024/03/21 07:59:37;;;;;;;14.60;9.43;;;15.20;99.90;;;;;;5055099;28;20656;-74
2024/03/21 08:02:04;;;;;;;12.30;8.60;;;15.40;99.90;;;;;;5053764;28;20200;-74
2024/03/21 08:04:29;;;;;;;13.50;9.97;;;15.60;99.90;;;;;;5053564;28;20167;-75
2024/03/21 08:06:57;;;;;;;13.00;9.13;;;15.60;99.90;;;;;;5052222;28;20544;-72
2024/03/21 08:09:23;;;;;;;13.20;9.30;;;15.80;99.90;;;;;;5049318;28;20711;-72
2024/03/21 08:11:49;;;;;;;13.30;9.20;;;15.30;99.90;;;;;;5033592;28;20492;-72
2024/03/21 08:14:15;;;;;;;12.70;8.67;;;15.10;99.90;;;;;;5034163;28;20172;-72
2024/03/21 08:16:40;;;;;;;10.57;9.03;;;15.50;99.90;;;;;;5040447;28;20485;-73
2024/03/21 08:19:07;;;;;;;10.70;9.13;;;15.30;99.90;;;;;;5055316;28;20167;-72
2024/03/21 08:21:32;;;;;;;18.00;10.63;;;15.50;99.90;;;;;;5055263;28;20211;-72
2024/03/21 08:23:58;;;;;;;10.43;8.43;;;15.30;99.90;;;;;;5055621;28;20408;-72
2024/03/21 08:26:24;;;;;;;16.50;10.47;;;15.10;99.90;;;;;;5052691;28;20186;-73
2024/03/21 08:28:49;;;;;;;14.60;9.70;;;15.20;99.90;;;;;;5035463;28;20163;-73
2024/03/21 08:31:15;;;;;;;11.97;9.90;;;15.20;99.90;;;;;;5036166;28;20270;-72
2024/03/21 08:33:40;;;;;;;15.33;10.20;;;15.30;99.90;;;;;;5035165;28;20229;-72
2024/03/21 08:36:06;;;;;;;16.13;10.17;;;15.40;99.90;;;;;;5034972;28;20206;-73
2024/03/21 08:38:33;;;;;;;13.63;10.30;;;15.40;99.90;;;;;;5054942;28;20245;-73
2024/03/21 08:40:58;;;;;;;19.13;9.43;;;15.70;99.90;;;;;;5054789;28;20507;-72
2024/03/21 08:43:24;;;;;;;16.87;9.50;;;15.70;99.90;;;;;;5055312;28;20409;-72
2024/03/21 08:45:52;;;;;;;14.57;10.53;;;15.50;99.90;;;;;;5054883;28;20162;-73
2024/03/21 08:48:17;;;;;;;14.33;9.00;;;15.40;99.90;;;;;;5036921;28;20731;-75
2024/03/21 08:50:47;;;;;;;14.20;9.03;;;15.70;99.90;;;;;;5033388;28;20426;-74
2024/03/21 08:53:15;;;;;;;12.50;8.40;;;15.80;99.90;;;;;;5033478;28;20245;-75
2024/03/21 08:55:40;;;;;;;10.53;7.50;;;15.60;99.90;;;;;;5035129;28;20406;-73
2024/03/21 08:58:06;;;;;;;10.80;7.70;;;15.70;99.90;;;;;;5050666;28;20991;-73
2024/03/21 09:00:32;;;;;;;9.03;7.30;;;15.90;99.90;;;;;;5054393;28;20518;-73
2024/03/21 09:03:01;;;;;;;9.70;7.07;;;16.00;99.90;;;;;;5054653;28;20163;-75
2024/03/21 09:05:27;;;;;;;14.43;7.33;;;16.00;99.90;;;;;;5054720;28;20440;-74
2024/03/21 09:07:56;;;;;;;9.47;6.40;;;16.20;99.90;;;;;;5040255;28;20421;-74
2024/03/21 09:10:22;;;;;;;10.70;7.20;;;16.20;99.90;;;;;;5034722;28;20398;-74
2024/03/21 09:12:48;;;;;;;8.47;7.10;;;16.30;99.90;;;;;;5034683;28;20460;-72
2024/03/21 09:15:16;;;;;;;8.13;6.37;;;16.50;99.90;;;;;;5034287;28;20183;-72
2024/03/21 09:17:41;;;;;;;7.37;6.30;;;16.60;99.90;;;;;;5046488;28;20190;-74
2024/03/21 09:20:07;;;;;;;9.87;6.20;;;16.90;99.90;;;;;;5054337;28;20401;-72
2024/03/21 09:22:34;;;;;;;8.40;6.40;;;17.00;99.90;;;;;;5052691;28;20195;-70
2024/03/21 09:25:00;;;;;;;7.47;5.57;;;17.20;99.90;;;;;;5054031;28;20401;-72
2024/03/21 09:27:26;;;;;;;8.50;5.30;;;17.20;99.90;;;;;;5053796;28;20494;-72
2024/03/21 09:29:51;;;;;;;5.50;4.60;;;17.30;99.90;;;;;;5054051;28;20166;-73
2024/03/21 09:32:18;;;;;;;5.93;5.30;;;17.40;99.90;;;;;;5052484;28;20773;-72
2024/03/21 09:34:49;;;;;;;7.57;5.60;;;17.50;99.90;;;;;;5053861;28;20178;-72
2024/03/21 09:37:15;;;;;;;5.60;4.97;;;17.60;99.90;;;;;;5077204;22;21023;-71
2024/03/21 09:39:41;;;;;;;6.00;4.80;;;17.60;99.90;;;;;;5053664;28;20459;-71
2024/03/21 09:42:12;;;;;;;7.10;4.90;;;17.80;99.90;;;;;;5053766;28;20190;-71
2024/03/21 09:44:39;;;;;;;7.20;5.13;;;17.80;99.90;;;;;;5052892;28;20899;-71
2024/03/21 09:47:06;;;;;;;6.33;4.93;;;17.60;99.90;;;;;;5066661;28;20782;-72
2024/03/21 09:49:31;;;;;;;4.83;4.10;;;17.20;99.90;;;;;;5053724;28;20888;-70
2024/03/21 09:51:58;;;;;;;6.53;5.07;;;17.10;99.90;;;;;;5053606;28;20435;-71
2024/03/21 09:54:24;;;;;;;5.47;4.97;;;17.10;99.90;;;;;;5052742;28;20546;-71
2024/03/21 09:56:53;;;;;;;5.87;5.03;;;17.10;99.90;;;;;;5057414;28;20438;-70
2024/03/21 09:59:20;;;;;;;8.13;5.00;;;17.30;99.90;;;;;;5073242;28;20235;-73
2024/03/21 10:01:46;;;;;;;7.30;5.50;;;17.30;99.90;;;;;;5055438;28;20490;-73
2024/03/21 10:04:12;;;;;;;7.43;5.23;;;17.30;99.90;;;;;;5073667;28;20405;-72
2024/03/21 10:06:45;;;;;;;10.00;6.37;;;17.20;99.90;;;;;;5066554;28;20420;-70
2024/03/21 10:09:11;;;;;;;5.30;4.77;;;17.00;99.90;;;;;;5073033;28;20165;-71
2024/03/21 10:11:36;;;;;;;7.07;5.40;;;17.00;99.90;;;;;;5055414;28;20412;-70
2024/03/21 10:14:02;;;;;;;7.37;5.47;;;17.10;99.90;;;;;;5072244;28;20539;-71
2024/03/21 10:16:29;;;;;;;7.83;5.13;;;17.10;99.90;;;;;;5071493;28;20673;-71
2024/03/21 10:18:55;;;;;;;6.30;4.90;;;17.20;99.90;;;;;;5052810;28;20177;-71
2024/03/21 10:21:23;;;;;;;9.43;7.20;;;17.20;99.90;;;;;;5052938;28;20441;-71
2024/03/21 10:23:49;;;;;;;7.37;6.67;;;17.30;99.90;;;;;;5052918;28;20401;-70
2024/03/21 10:26:17;;;;;;;8.37;7.53;;;17.50;99.90;;;;;;5053150;28;20432;-71
2024/03/21 10:28:44;;;;;;;8.50;7.20;;;17.70;99.90;;;;;;5072552;28;20404;-70
2024/03/21 10:31:13;;;;;;;7.87;6.47;;;17.90;99.90;;;;;;5073238;28;20408;-71
2024/03/21 10:33:38;;;;;;;9.63;6.20;;;17.60;99.90;;;;;;5073147;28;20407;-72
2024/03/21 10:36:04;;;;;;;9.67;6.77;;;17.60;99.90;;;;;;5072796;28;20503;-72
2024/03/21 10:38:31;;;;;;;10.70;9.03;;;17.80;99.90;;;;;;5054789;28;20416;-72
2024/03/21 10:41:03;;;;;;;13.37;9.83;;;17.70;99.90;;;;;;5052661;28;20445;-75
2024/03/21 10:43:31;;;;;;;11.65;10.15;;;17.70;99.90;;;;;;5052405;28;20500;-71
2024/03/21 10:45:57;;;;;;;10.07;9.07;;;17.80;99.90;;;;;;5051435;28;20206;-72
2024/03/21 10:48:27;;;;;;;12.10;10.47;;;17.90;99.90;;;;;;5069432;28;20430;-71
2024/03/21 10:50:53;;;;;;;11.23;10.13;;;17.90;99.90;;;;;;5073068;28;20426;-71
2024/03/21 10:53:20;;;;;;;11.50;10.30;;;17.60;99.90;;;;;;5073059;28;20404;-70
2024/03/21 10:55:52;;;;;;;12.20;10.83;;;17.50;99.90;;;;;;5054713;28;20949;-71
2024/03/21 10:58:19;;;;;;;10.37;9.30;;;17.50;99.90;;;;;;5056922;28;20934;-70
2024/03/21 11:00:55;;;;;;;11.13;9.90;;;17.70;99.90;;;;;;5052591;28;20445;-71
2024/03/21 11:03:20;;;;;;;14.00;9.90;;;18.20;99.90;;;;;;5053273;28;20409;-70
2024/03/21 11:05:56;;;;;;;10.30;8.93;;;18.00;99.90;;;;;;5052911;28;20480;-71
2024/03/21 11:08:28;;;;;;;10.70;9.70;;;17.50;99.90;;;;;;5068769;28;20419;-72
2024/03/21 11:10:55;;;;;;;8.17;7.37;;;17.20;99.90;;;;;;5072882;28;20391;-70
2024/03/21 11:13:24;;;;;;;9.80;7.90;;;17.70;99.90;;;;;;5072641;28;20905;-70
2024/03/21 11:15:50;;;;;;;10.00;7.87;;;18.30;99.90;;;;;;5054935;28;20988;-71
2024/03/21 11:18:15;;;;;;;8.27;7.50;;;19.00;99.90;;;;;;5056894;28;20425;-71
2024/03/21 11:20:41;;;;;;;8.73;7.80;;;18.90;99.90;;;;;;5052303;28;20486;-70
2024/03/21 11:23:11;;;;;;;7.67;6.97;;;19.20;99.90;;;;;;5051011;28;20588;-70
2024/03/21 11:25:37;;;;;;;10.40;8.10;;;20.30;99.90;;;;;;5054102;28;20864;-70
2024/03/21 11:28:03;;;;;;;10.90;7.67;;;20.30;99.90;;;;;;5069514;28;20431;-70
2024/03/21 11:30:28;;;;;;;10.80;7.10;;;20.30;99.90;;;;;;5076005;28;20619;-69
2024/03/21 11:32:54;;;;;;;7.27;6.60;;;20.40;99.90;;;;;;5075989;28;20170;-70
2024/03/21 11:35:24;;;;;;;8.57;7.77;;;19.70;99.90;;;;;;5076286;28;20173;-72
2024/03/21 11:37:50;;;;;;;8.50;7.70;;;19.90;99.90;;;;;;5064343;28;20550;-70
2024/03/21 11:40:16;;;;;;;9.63;8.63;;;20.90;99.90;;;;;;5056025;28;20764;-71
2024/03/21 11:42:41;;;;;;;10.43;9.33;;;21.50;99.10;;;;;;5055932;28;20452;-73
2024/03/21 11:45:13;;;;;;;9.90;8.87;;;20.70;99.90;;;;;;5055959;28;20488;-72
2024/03/21 11:47:39;;;;;;;10.63;9.53;;;20.60;99.90;;;;;;5065424;28;20182;-72
2024/03/21 11:50:04;;;;;;;11.10;10.00;;;21.60;99.90;;;;;;5072539;28;20488;-72
2024/03/21 11:52:30;;;;;;;11.60;10.53;;;21.50;99.30;;;;;;5075768;28;20177;-73
2024/03/21 11:54:56;;;;;;;11.90;10.63;;;20.90;99.90;;;;;;5075655;28;20169;-71
2024/03/21 11:57:21;;;;;;;15.73;10.80;;;21.30;99.50;;;;;;5075882;28;20193;-73
2024/03/21 11:59:49;;;;;;;11.20;10.00;;;22.30;98.60;;;;;;5076572;28;20537;-72
2024/03/21 12:02:17;;;;;;;11.13;10.00;;;21.90;97.60;;;;;;5068776;28;20194;-73
2024/03/21 12:04:43;;;;;;;11.07;9.87;;;20.60;99.20;;;;;;5055041;28;20446;-70
2024/03/21 12:07:13;;;;;;;12.40;11.10;;;20.30;99.90;;;;;;5061113;28;20420;-71
2024/03/21 12:09:38;;;;;;;10.73;9.73;;;20.60;98.90;;;;;;5075639;28;20544;-72
2024/03/21 12:12:05;;;;;;;12.07;9.03;;;20.60;98.70;;;;;;5075225;28;20404;-72
2024/03/21 12:14:30;;;;;;;10.97;9.40;;;20.30;98.60;;;;;;5075466;28;20170;-72
2024/03/21 12:16:56;;;;;;;10.90;9.80;;;19.90;99.20;;;;;;5071936;28;20451;-73
2024/03/21 12:19:22;;;;;;;12.20;10.90;;;19.50;99.90;;;;;;5055228;28;20521;-72
2024/03/21 12:21:47;;;;;;;13.07;11.73;;;19.30;99.90;;;;;;5054663;28;20419;-71
2024/03/21 12:24:13;;;;;;;12.13;11.03;;;19.40;99.90;;;;;;5055073;28;20163;-73
2024/03/21 12:26:39;;;;;;;23.90;17.20;;;20.00;99.90;;;;;;5055964;28;20604;-74
2024/03/21 12:29:04;;;;;;;13.73;12.23;;;21.20;99.70;;;;;;5075047;28;20536;-73
2024/03/21 12:31:30;;;;;;;13.60;12.20;;;21.60;98.90;;;;;;5074514;28;20410;-73
2024/03/21 12:33:58;;;;;;;15.20;13.60;;;21.10;99.00;;;;;;5074873;28;20409;-73
2024/03/21 12:36:24;;;;;;;14.57;13.10;;;19.60;99.90;;;;;;5056227;28;20259;-73
2024/03/21 12:38:49;;;;;;;13.70;12.40;;;19.00;99.90;;;;;;5055797;28;20405;-71
2024/03/21 12:41:15;;;;;;;16.33;13.57;;;18.80;99.90;;;;;;5055115;28;20189;-73